| time (UTC) | temp F | wind direction | speed MPH | gust MPH | rain 1hr in | rain 24hr in | rain mn in | humidity % | barometer mb |
| 20260507025047 | 69 | 337 | 0.0 | 0.0 | 0.01 | 0.09 | 0.08 | 92 | 1029.8 |
| 20260507024555 | 69 | 337 | 0.0 | 0.0 | 0.01 | 0.09 | 0.08 | 92 | 1029.8 |
| 20260507024046 | 69 | 337 | 0.0 | 0.0 | 0.02 | 0.09 | 0.08 | 92 | 1029.7 |
| 20260507023548 | 69 | 337 | 0.0 | 0.0 | 0.02 | 0.09 | 0.08 | 92 | 1029.6 |
| 20260507023049 | 69 | 337 | 0.0 | 0.0 | 0.02 | 0.09 | 0.08 | 92 | 1029.5 |
| 20260507022546 | 69 | 337 | 0.0 | 0.0 | 0.02 | 0.09 | 0.08 | 92 | 1029.4 |
| 20260507022044 | 69 | 337 | 0.0 | 0.0 | 0.02 | 0.09 | 0.08 | 92 | 1029.5 |
| 20260507021546 | 69 | 337 | 0.0 | 0.0 | 0.02 | 0.09 | 0.08 | 92 | 1029.4 |
| 20260507021044 | 69 | 337 | 0.0 | 0.0 | 0.02 | 0.08 | 0.07 | 92 | 1029.4 |
| 20260507020545 | 69 | 337 | 0.0 | 0.0 | 0.02 | 0.08 | 0.07 | 92 | 1029.5 |
| 20260507020105 | 69 | 337 | 0.0 | 0.0 | 0.02 | 0.08 | 0.07 | 92 | 1029.4 |
| 20260507015543 | 70 | 337 | 0.0 | 0.0 | 0.02 | 0.09 | 0.07 | 92 | 1029.5 |
| 20260507015043 | 70 | 337 | 0.0 | 0.0 | 0.02 | 0.09 | 0.07 | 92 | 1029.4 |
| 20260507014547 | 70 | 337 | 0.0 | 0.0 | 0.03 | 0.09 | 0.07 | 92 | 1029.5 |
| 20260507014045 | 70 | 337 | 0.0 | 0.0 | 0.02 | 0.08 | 0.06 | 92 | 1029.5 |
| 20260507013542 | 70 | 337 | 0.0 | 0.0 | 0.02 | 0.08 | 0.06 | 92 | 1029.5 |
| 20260507013051 | 70 | 337 | 0.0 | 0.0 | 0.02 | 0.08 | 0.06 | 92 | 1029.5 |
| 20260507012542 | 70 | 337 | 0.0 | 0.0 | 0.02 | 0.08 | 0.06 | 92 | 1029.4 |
| 20260507012042 | 70 | 337 | 0.0 | 0.0 | 0.03 | 0.08 | 0.06 | 92 | 1029.3 |
| 20260507011542 | 70 | 337 | 0.0 | 0.0 | 0.03 | 0.08 | 0.06 | 92 | 1029.2 |
| 20260507011042 | 70 | 337 | 0.0 | 0.0 | 0.02 | 0.07 | 0.05 | 92 | 1029.1 |
| 20260507010542 | 70 | 337 | 0.0 | 0.0 | 0.02 | 0.07 | 0.05 | 92 | 1029.0 |
| 20260507010043 | 70 | 337 | 0.0 | 2.0 | 0.02 | 0.07 | 0.05 | 92 | 1028.9 |
| 20260507005542 | 70 | 337 | 1.0 | 2.0 | 0.03 | 0.08 | 0.05 | 92 | 1028.8 |
| 20260507005045 | 70 | 324 | 1.0 | 2.0 | 0.03 | 0.08 | 0.05 | 92 | 1028.8 |
| 20260507004552 | 70 | 360 | 0.0 | 0.0 | 0.02 | 0.07 | 0.04 | 92 | 1028.9 |
| 20260507004041 | 70 | 360 | 0.0 | 2.0 | 0.02 | 0.07 | 0.04 | 92 | 1028.7 |
| 20260507003540 | 70 | 360 | 0.0 | 2.0 | 0.02 | 0.07 | 0.04 | 92 | 1028.5 |
| 20260507003045 | 70 | 326 | 1.0 | 2.0 | 0.03 | 0.07 | 0.04 | 91 | 1028.5 |
| 20260507002540 | 71 | 347 | 0.0 | 1.0 | 0.03 | 0.07 | 0.04 | 91 | 1028.7 |
| 20260507002040 | 71 | 1 | 0.0 | 1.0 | 0.02 | 0.06 | 0.03 | 91 | 1028.5 |
| 20260507001545 | 71 | 1 | 0.0 | 2.0 | 0.02 | 0.06 | 0.03 | 91 | 1028.3 |
| 20260507001039 | 71 | 1 | 0.0 | 2.0 | 0.02 | 0.06 | 0.03 | 91 | 1028.1 |
| 20260507000545 | 71 | 327 | 0.0 | 2.0 | 0.02 | 0.06 | 0.03 | 91 | 1028.3 |
| 20260507000039 | 71 | 279 | 0.0 | 2.0 | 0.03 | 0.06 | 0.03 | 91 | 1028.6 |
| 20260506235539 | 71 | 233 | 1.0 | 2.0 | 0.02 | 0.07 | 0.02 | 91 | 1028.6 |
| 20260506235039 | 71 | 245 | 1.0 | 2.0 | 0.02 | 0.07 | 0.02 | 91 | 1028.6 |
| 20260506234544 | 72 | 238 | 0.0 | 0.0 | 0.02 | 0.07 | 0.02 | 91 | 1028.2 |
| 20260506234039 | 72 | 238 | 0.0 | 1.0 | 0.02 | 0.07 | 0.02 | 91 | 1027.9 |
| 20260506233539 | 72 | 238 | 0.0 | 1.0 | 0.02 | 0.07 | 0.02 | 91 | 1027.9 |
| 20260506233046 | 72 | 295 | 0.0 | 1.0 | 0.01 | 0.06 | 0.01 | 91 | 1027.7 |
| 20260506232538 | 72 | 295 | 0.0 | 3.0 | 0.01 | 0.06 | 0.01 | 91 | 1027.7 |
| 20260506232038 | 72 | 58 | 0.0 | 4.0 | 0.01 | 0.06 | 0.01 | 90 | 1027.5 |
| 20260506231538 | 72 | 216 | 0.0 | 6.0 | 0.01 | 0.06 | 0.01 | 90 | 1027.7 |
| 20260506231038 | 72 | 212 | 1.0 | 7.0 | 0.01 | 0.06 | 0.01 | 89 | 1027.7 |
| 20260506230539 | 73 | 10 | 2.0 | 7.0 | 0.01 | 0.06 | 0.01 | 89 | 1027.8 |
| 20260506230046 | 74 | 314 | 2.0 | 7.0 | 0.00 | 0.05 | 0.00 | 87 | 1027.7 |
| 20260506225537 | 76 | 354 | 1.0 | 9.0 | 0.00 | 0.06 | 0.00 | 85 | 1027.7 |
| 20260506225037 | 77 | 316 | 2.0 | 9.0 | 0.00 | 0.06 | 0.00 | 84 | 1027.0 |
| 20260506224537 | 77 | 333 | 0.0 | 3.0 | 0.00 | 0.06 | 0.00 | 85 | 1026.0 |
| 20260506224037 | 78 | 197 | 1.0 | 6.0 | 0.00 | 0.06 | 0.00 | 84 | 1026.0 |
| 20260506223538 | 78 | 279 | 2.0 | 6.0 | 0.00 | 0.06 | 0.00 | 84 | 1026.2 |
| 20260506223043 | 78 | 175 | 1.0 | 3.0 | 0.00 | 0.06 | 0.00 | 84 | 1026.2 |
| 20260506222536 | 79 | 278 | 1.0 | 3.0 | 0.00 | 0.06 | 0.00 | 83 | 1025.6 |
| 20260506222036 | 79 | 22 | 1.0 | 4.0 | 0.00 | 0.06 | 0.00 | 83 | 1026.1 |
| 20260506221535 | 80 | 198 | 0.0 | 5.0 | 0.00 | 0.06 | 0.00 | 83 | 1026.1 |
| 20260506221035 | 80 | 191 | 0.0 | 5.0 | 0.00 | 0.06 | 0.00 | 82 | 1025.6 |
| 20260506220537 | 80 | 249 | 2.0 | 5.0 | 0.00 | 0.06 | 0.00 | 82 | 1025.9 |
| 20260506220035 | 80 | 167 | 0.0 | 4.0 | 0.00 | 0.06 | 0.00 | 82 | 1025.8 |
| 20260506215534 | 79 | 227 | 0.0 | 4.0 | 0.00 | 0.08 | 0.00 | 82 | 1025.6 |
| 20260506215036 | 79 | 148 | 0.0 | 4.0 | 0.00 | 0.08 | 0.00 | 83 | 1025.6 |
| 20260506214541 | 79 | 73 | 0.0 | 4.0 | 0.00 | 0.08 | 0.00 | 83 | 1025.7 |
| 20260506214032 | 79 | 117 | 1.0 | 4.0 | 0.00 | 0.08 | 0.00 | 82 | 1026.0 |
| 20260506213530 | 79 | 168 | 0.0 | 3.0 | 0.00 | 0.08 | 0.00 | 83 | 1026.3 |
| 20260506213033 | 80 | 119 | 0.0 | 3.0 | 0.00 | 0.08 | 0.00 | 82 | 1026.6 |
| 20260506212530 | 80 | 339 | 0.0 | 1.0 | 0.00 | 0.08 | 0.00 | 82 | 1026.4 |
| 20260506212029 | 80 | 24 | 0.0 | 3.0 | 0.00 | 0.08 | 0.00 | 81 | 1026.7 |
| 20260506211528 | 80 | 88 | 1.0 | 3.0 | 0.00 | 0.08 | 0.00 | 80 | 1026.8 |
| 20260506211027 | 80 | 67 | 0.0 | 2.0 | 0.00 | 0.08 | 0.00 | 82 | 1026.8 |
| 20260506210527 | 79 | 67 | 0.0 | 2.0 | 0.00 | 0.08 | 0.00 | 82 | 1027.0 |
| 20260506210027 | 79 | 91 | 0.0 | 2.0 | 0.00 | 0.08 | 0.00 | 82 | 1027.1 |
| 20260506205528 | 78 | 166 | 0.0 | 1.0 | 0.00 | 0.10 | 0.00 | 85 | 1027.1 |
| 20260506205026 | 78 | 166 | 0.0 | 2.0 | 0.00 | 0.10 | 0.00 | 85 | 1027.1 |
| 20260506204527 | 77 | 87 | 0.0 | 2.0 | 0.00 | 0.10 | 0.00 | 87 | 1027.1 |
| 20260506204025 | 77 | 213 | 0.0 | 3.0 | 0.00 | 0.10 | 0.00 | 86 | 1027.2 |
| 20260506203523 | 76 | 176 | 0.0 | 3.0 | 0.00 | 0.10 | 0.00 | 87 | 1027.3 |
| 20260506203023 | 76 | 324 | 0.0 | 1.0 | 0.00 | 0.10 | 0.00 | 90 | 1027.3 |
| 20260506202521 | 75 | 349 | 0.0 | 0.0 | 0.00 | 0.10 | 0.00 | 90 | 1027.4 |
| 20260506202021 | 75 | 359 | 0.0 | 1.0 | 0.00 | 0.10 | 0.00 | 90 | 1027.5 |
| 20260506201521 | 75 | 359 | 0.0 | 2.0 | 0.00 | 0.10 | 0.00 | 90 | 1027.5 |
| 20260506201022 | 75 | 359 | 0.0 | 2.0 | 0.00 | 0.10 | 0.00 | 89 | 1027.5 |
| 20260506200520 | 75 | 340 | 1.0 | 2.0 | 0.00 | 0.10 | 0.00 | 90 | 1027.6 |
| 20260506200020 | 76 | 1 | 1.0 | 2.0 | 0.00 | 0.10 | 0.00 | 89 | 1027.7 |
| 20260506195519 | 76 | 8 | 1.0 | 2.0 | 0.00 | 0.12 | 0.00 | 89 | 1027.8 |
| 20260506195019 | 76 | 1 | 0.0 | 2.0 | 0.00 | 0.12 | 0.00 | 88 | 1027.9 |
| 20260506194519 | 77 | 1 | 0.0 | 2.0 | 0.00 | 0.12 | 0.00 | 87 | 1027.9 |
| 20260506194017 | 77 | 1 | 0.0 | 2.0 | 0.00 | 0.12 | 0.00 | 85 | 1027.9 |
| 20260506193517 | 77 | 356 | 0.0 | 4.0 | 0.00 | 0.12 | 0.00 | 85 | 1027.9 |
| 20260506193017 | 77 | 39 | 1.0 | 4.0 | 0.00 | 0.12 | 0.00 | 84 | 1028.1 |
| 20260506192518 | 77 | 24 | 0.0 | 3.0 | 0.00 | 0.12 | 0.00 | 84 | 1028.1 |
| 20260506192017 | 77 | 13 | 0.0 | 2.0 | 0.00 | 0.12 | 0.00 | 84 | 1028.2 |
| 20260506191517 | 77 | 15 | 0.0 | 2.0 | 0.00 | 0.12 | 0.00 | 85 | 1028.2 |
| 20260506191018 | 77 | 33 | 1.0 | 2.0 | 0.00 | 0.12 | 0.00 | 85 | 1028.4 |
| 20260506190518 | 77 | 21 | 0.0 | 2.0 | 0.00 | 0.12 | 0.00 | 85 | 1028.4 |
| 20260506190017 | 77 | 23 | 1.0 | 2.0 | 0.00 | 0.12 | 0.00 | 84 | 1028.5 |
| 20260506185517 | 77 | 338 | 0.0 | 1.0 | 0.00 | 0.14 | 0.00 | 85 | 1028.6 |
| 20260506185017 | 78 | 214 | 0.0 | 3.0 | 0.00 | 0.14 | 0.00 | 85 | 1028.6 |
| 20260506184534 | 78 | 52 | 0.0 | 3.0 | 0.00 | 0.14 | 0.00 | 83 | 1028.7 |
| 20260506184019 | 78 | 30 | 1.0 | 3.0 | 0.00 | 0.14 | 0.00 | 82 | 1028.7 |
| 20260506183516 | 78 | 52 | 0.0 | 3.0 | 0.00 | 0.14 | 0.00 | 83 | 1028.8 |
| 20260506183023 | 78 | 330 | 1.0 | 3.0 | 0.00 | 0.14 | 0.00 | 82 | 1028.8 |
| 20260506182515 | 78 | 1 | 1.0 | 4.0 | 0.00 | 0.14 | 0.00 | 81 | 1028.8 |
| 20260506182019 | 78 | 41 | 2.0 | 4.0 | 0.00 | 0.14 | 0.00 | 82 | 1028.8 |
| 20260506181516 | 78 | 322 | 0.0 | 3.0 | 0.00 | 0.14 | 0.00 | 82 | 1028.9 |
| 20260506181017 | 78 | 26 | 1.0 | 6.0 | 0.00 | 0.14 | 0.00 | 81 | 1028.8 |
| 20260506180515 | 78 | 68 | 1.0 | 6.0 | 0.00 | 0.14 | 0.00 | 81 | 1028.8 |
| 20260506180016 | 79 | 41 | 0.0 | 4.0 | 0.00 | 0.14 | 0.00 | 80 | 1028.8 |
| 20260506175515 | 79 | 70 | 1.0 | 4.0 | 0.00 | 0.17 | 0.00 | 80 | 1029.0 |
| 20260506175014 | 79 | 24 | 1.0 | 4.0 | 0.00 | 0.17 | 0.00 | 79 | 1029.0 |
| 20260506174518 | 79 | 73 | 0.0 | 3.0 | 0.00 | 0.17 | 0.00 | 79 | 1029.1 |
| 20260506174015 | 79 | 58 | 0.0 | 3.0 | 0.00 | 0.17 | 0.00 | 78 | 1029.1 |
| 20260506173514 | 79 | 78 | 0.0 | 4.0 | 0.00 | 0.17 | 0.00 | 79 | 1029.1 |
| 20260506173013 | 79 | 340 | 0.0 | 6.0 | 0.00 | 0.17 | 0.00 | 78 | 1029.2 |
| 20260506172513 | 79 | 96 | 1.0 | 6.0 | 0.00 | 0.17 | 0.00 | 79 | 1029.2 |
| 20260506172013 | 79 | 50 | 0.0 | 3.0 | 0.00 | 0.17 | 0.00 | 77 | 1029.1 |
| 20260506171513 | 79 | 79 | 1.0 | 4.0 | 0.00 | 0.17 | 0.00 | 78 | 1029.1 |
| 20260506171018 | 79 | 78 | 1.0 | 4.0 | 0.00 | 0.17 | 0.00 | 77 | 1029.1 |
| 20260506170512 | 79 | 73 | 2.0 | 4.0 | 0.00 | 0.17 | 0.00 | 77 | 1029.1 |
| 20260506170011 | 79 | 360 | 0.0 | 3.0 | 0.00 | 0.17 | 0.00 | 79 | 1029.1 |
| 20260506165511 | 79 | 95 | 1.0 | 4.0 | 0.00 | 0.18 | 0.00 | 79 | 1029.1 |
| 20260506165012 | 79 | 112 | 1.0 | 4.0 | 0.00 | 0.18 | 0.00 | 79 | 1029.1 |
| 20260506164510 | 79 | 63 | 1.0 | 5.0 | 0.00 | 0.18 | 0.00 | 79 | 1029.0 |
| 20260506164009 | 79 | 85 | 2.0 | 5.0 | 0.00 | 0.18 | 0.00 | 79 | 1029.2 |
| 20260506163509 | 79 | 30 | 1.0 | 4.0 | 0.00 | 0.18 | 0.00 | 79 | 1029.2 |
| 20260506163011 | 79 | 44 | 1.0 | 6.0 | 0.00 | 0.18 | 0.00 | 80 | 1029.2 |
| 20260506162506 | 78 | 165 | 0.0 | 3.0 | 0.00 | 0.18 | 0.00 | 79 | 1029.2 |
| 20260506162006 | 78 | 82 | 2.0 | 3.0 | 0.00 | 0.18 | 0.00 | 80 | 1029.3 |
| 20260506161505 | 78 | 57 | 1.0 | 3.0 | 0.00 | 0.18 | 0.00 | 80 | 1029.2 |
| 20260506161006 | 78 | 56 | 0.0 | 3.0 | 0.00 | 0.18 | 0.00 | 81 | 1029.2 |
| 20260506160502 | 77 | 67 | 1.0 | 3.0 | 0.00 | 0.18 | 0.00 | 82 | 1029.3 |
| 20260506160001 | 76 | 5 | 1.0 | 2.0 | 0.00 | 0.18 | 0.00 | 83 | 1029.3 |
| 20260506155602 | 76 | 30 | 0.0 | 3.0 | 0.00 | 0.19 | 0.00 | 85 | 1029.3 |
| 20260506155059 | 75 | 82 | 0.0 | 3.0 | 0.00 | 0.19 | 0.00 | 84 | 1029.4 |
| 20260506154602 | 75 | 98 | 2.0 | 3.0 | 0.00 | 0.19 | 0.00 | 86 | 1029.5 |
| 20260506154056 | 74 | 112 | 0.0 | 2.0 | 0.00 | 0.19 | 0.00 | 87 | 1029.6 |
| 20260506153553 | 74 | 49 | 0.0 | 2.0 | 0.00 | 0.19 | 0.00 | 88 | 1029.6 |
| 20260506153110 | 73 | 94 | 0.0 | 2.0 | 0.00 | 0.19 | 0.00 | 88 | 1029.6 |
| 20260506152550 | 72 | 67 | 0.0 | 2.0 | 0.00 | 0.19 | 0.00 | 88 | 1029.6 |
| 20260506152050 | 72 | 52 | 0.0 | 2.0 | 0.00 | 0.19 | 0.00 | 89 | 1029.6 |
| 20260506151547 | 71 | 1 | 0.0 | 2.0 | 0.00 | 0.19 | 0.00 | 90 | 1029.7 |
| 20260506151051 | 71 | 1 | 0.0 | 1.0 | 0.00 | 0.19 | 0.00 | 91 | 1029.7 |
| 20260506150546 | 71 | 1 | 0.0 | 2.0 | 0.00 | 0.19 | 0.00 | 91 | 1029.7 |
| 20260506150053 | 71 | 1 | 0.0 | 2.0 | 0.00 | 0.19 | 0.00 | 91 | 1029.6 |
| 20260506145544 | 70 | 1 | 0.0 | 2.0 | 0.00 | 0.20 | 0.00 | 91 | 1029.6 |
| 20260506145042 | 70 | 1 | 0.0 | 1.0 | 0.00 | 0.20 | 0.00 | 92 | 1029.7 |
| 20260506144544 | 70 | 1 | 0.0 | 1.0 | 0.00 | 0.20 | 0.00 | 92 | 1029.6 |
| 20260506144041 | 70 | 1 | 0.0 | 2.0 | 0.00 | 0.20 | 0.00 | 92 | 1029.7 |
| 20260506143539 | 70 | 1 | 0.0 | 2.0 | 0.00 | 0.20 | 0.00 | 92 | 1029.6 |
| 20260506143038 | 69 | 1 | 0.0 | 2.0 | 0.00 | 0.20 | 0.00 | 92 | 1029.6 |
| 20260506142536 | 69 | 1 | 0.0 | 2.0 | 0.00 | 0.20 | 0.00 | 92 | 1029.6 |
| 20260506142036 | 69 | 1 | 0.0 | 2.0 | 0.00 | 0.20 | 0.00 | 92 | 1029.6 |
| 20260506141535 | 69 | 3 | 0.0 | 2.0 | 0.00 | 0.20 | 0.00 | 92 | 1029.5 |
| 20260506141035 | 69 | 12 | 0.0 | 3.0 | 0.00 | 0.20 | 0.00 | 92 | 1029.4 |
| 20260506140537 | 68 | 12 | 0.0 | 3.0 | 0.00 | 0.20 | 0.00 | 92 | 1029.3 |
| 20260506140034 | 68 | 8 | 1.0 | 3.0 | 0.00 | 0.20 | 0.00 | 92 | 1029.3 |
| 20260506135533 | 68 | 360 | 2.0 | 3.0 | 0.00 | 0.21 | 0.00 | 92 | 1029.3 |
| 20260506135031 | 68 | 359 | 1.0 | 2.0 | 0.00 | 0.21 | 0.00 | 92 | 1029.3 |
| 20260506134532 | 67 | 2 | 1.0 | 2.0 | 0.00 | 0.21 | 0.00 | 93 | 1029.2 |
| 20260506134029 | 67 | 1 | 0.0 | 2.0 | 0.00 | 0.21 | 0.00 | 92 | 1029.1 |
| 20260506133527 | 67 | 1 | 0.0 | 2.0 | 0.00 | 0.21 | 0.00 | 92 | 1029.1 |
| 20260506133027 | 67 | 1 | 0.0 | 2.0 | 0.00 | 0.21 | 0.00 | 92 | 1029.1 |
| 20260506132528 | 67 | 4 | 0.0 | 2.0 | 0.00 | 0.21 | 0.00 | 93 | 1029.1 |
| 20260506132025 | 67 | 10 | 0.0 | 2.0 | 0.00 | 0.21 | 0.00 | 93 | 1029.1 |
| 20260506131533 | 67 | 10 | 0.0 | 2.0 | 0.00 | 0.21 | 0.00 | 93 | 1029.1 |
| 20260506131025 | 67 | 18 | 0.0 | 2.0 | 0.00 | 0.21 | 0.00 | 92 | 1029.2 |
| 20260506130525 | 66 | 13 | 1.0 | 2.0 | 0.00 | 0.21 | 0.00 | 93 | 1029.1 |
| 20260506130024 | 66 | 15 | 1.0 | 2.0 | 0.00 | 0.21 | 0.00 | 93 | 1029.2 |
| 20260506125524 | 66 | 20 | 0.0 | 2.0 | 0.00 | 0.21 | 0.00 | 93 | 1029.3 |
| 20260506125023 | 66 | 7 | 1.0 | 2.0 | 0.00 | 0.21 | 0.00 | 93 | 1029.3 |
| 20260506124522 | 66 | 4 | 1.0 | 2.0 | 0.00 | 0.21 | 0.00 | 92 | 1029.2 |
| 20260506124021 | 66 | 7 | 1.0 | 2.0 | 0.00 | 0.21 | 0.00 | 92 | 1029.2 |
| 20260506123521 | 66 | 7 | 1.0 | 2.0 | 0.00 | 0.21 | 0.00 | 92 | 1029.1 |
| 20260506123020 | 66 | 6 | 0.0 | 2.0 | 0.00 | 0.21 | 0.00 | 92 | 1029.0 |
| 20260506122521 | 66 | 4 | 0.0 | 2.0 | 0.00 | 0.21 | 0.00 | 93 | 1029.0 |
| 20260506122019 | 66 | 11 | 1.0 | 2.0 | 0.00 | 0.21 | 0.00 | 93 | 1029.0 |
| 20260506121520 | 65 | 6 | 0.0 | 2.0 | 0.00 | 0.21 | 0.00 | 93 | 1029.0 |
| 20260506121019 | 65 | 4 | 0.0 | 2.0 | 0.00 | 0.21 | 0.00 | 93 | 1028.9 |
| 20260506120518 | 65 | 4 | 0.0 | 2.0 | 0.00 | 0.21 | 0.00 | 92 | 1028.8 |
| 20260506120020 | 65 | 25 | 1.0 | 2.0 | 0.00 | 0.21 | 0.00 | 92 | 1028.9 |
| 20260506115517 | 65 | 11 | 1.0 | 2.0 | 0.00 | 0.22 | 0.00 | 92 | 1028.8 |
| 20260506115017 | 65 | 11 | 0.0 | 2.0 | 0.00 | 0.22 | 0.00 | 92 | 1028.8 |
| 20260506114521 | 65 | 11 | 1.0 | 2.0 | 0.00 | 0.22 | 0.00 | 92 | 1028.7 |
| 20260506114015 | 65 | 6 | 1.0 | 2.0 | 0.00 | 0.22 | 0.00 | 92 | 1028.6 |
| 20260506113514 | 65 | 6 | 0.0 | 2.0 | 0.00 | 0.22 | 0.00 | 92 | 1028.6 |
| 20260506113025 | 65 | 6 | 0.0 | 1.0 | 0.00 | 0.22 | 0.00 | 92 | 1028.6 |
| 20260506112513 | 65 | 6 | 0.0 | 1.0 | 0.00 | 0.22 | 0.00 | 92 | 1028.6 |
| 20260506112014 | 65 | 6 | 0.0 | 1.0 | 0.00 | 0.22 | 0.00 | 92 | 1028.6 |
| 20260506111513 | 65 | 6 | 0.0 | 2.0 | 0.00 | 0.22 | 0.00 | 92 | 1028.5 |
| 20260506111013 | 65 | 4 | 0.0 | 2.0 | 0.00 | 0.22 | 0.00 | 92 | 1028.4 |
| 20260506110513 | 65 | 5 | 0.0 | 2.0 | 0.00 | 0.22 | 0.00 | 92 | 1028.4 |
| 20260506110013 | 65 | 2 | 0.0 | 2.0 | 0.00 | 0.22 | 0.00 | 92 | 1028.3 |
| 20260506105513 | 65 | 4 | 0.0 | 2.0 | 0.00 | 0.22 | 0.00 | 92 | 1028.4 |
| 20260506105013 | 66 | 13 | 0.0 | 2.0 | 0.00 | 0.22 | 0.00 | 92 | 1028.4 |
| 20260506104512 | 66 | 13 | 1.0 | 3.0 | 0.00 | 0.22 | 0.00 | 92 | 1028.3 |
| 20260506104012 | 66 | 4 | 1.0 | 2.0 | 0.00 | 0.22 | 0.00 | 92 | 1028.3 |
| 20260506103511 | 66 | 6 | 1.0 | 3.0 | 0.00 | 0.22 | 0.00 | 92 | 1028.2 |
| 20260506103014 | 66 | 21 | 1.0 | 3.0 | 0.00 | 0.22 | 0.00 | 92 | 1028.2 |
| 20260506102515 | 66 | 1 | 1.0 | 4.0 | 0.00 | 0.22 | 0.00 | 92 | 1028.2 |
| 20260506102011 | 66 | 2 | 1.0 | 4.0 | 0.00 | 0.22 | 0.00 | 92 | 1028.2 |
| 20260506101512 | 66 | 329 | 2.0 | 3.0 | 0.00 | 0.22 | 0.00 | 92 | 1028.1 |
| 20260506101011 | 66 | 360 | 1.0 | 3.0 | 0.00 | 0.22 | 0.00 | 92 | 1028.0 |
| 20260506100510 | 66 | 7 | 1.0 | 3.0 | 0.00 | 0.22 | 0.00 | 92 | 1027.9 |
| 20260506100011 | 66 | 359 | 1.0 | 3.0 | 0.00 | 0.22 | 0.00 | 92 | 1027.9 |
| 20260506095510 | 66 | 12 | 1.0 | 2.0 | 0.00 | 0.23 | 0.00 | 92 | 1027.9 |
| 20260506095010 | 66 | 11 | 0.0 | 2.0 | 0.00 | 0.23 | 0.00 | 92 | 1027.9 |
| 20260506094510 | 66 | 13 | 0.0 | 3.0 | 0.00 | 0.23 | 0.00 | 92 | 1027.9 |
| 20260506094011 | 66 | 15 | 1.0 | 3.0 | 0.00 | 0.23 | 0.00 | 92 | 1027.9 |
| 20260506093508 | 66 | 1 | 1.0 | 2.0 | 0.00 | 0.23 | 0.00 | 92 | 1027.9 |
| 20260506093009 | 66 | 1 | 0.0 | 2.0 | 0.00 | 0.23 | 0.00 | 92 | 1027.9 |
| 20260506092510 | 66 | 360 | 0.0 | 2.0 | 0.00 | 0.23 | 0.00 | 92 | 1027.9 |
| 20260506092008 | 66 | 30 | 0.0 | 2.0 | 0.00 | 0.23 | 0.00 | 92 | 1027.8 |
| 20260506091508 | 66 | 30 | 0.0 | 2.0 | 0.00 | 0.23 | 0.00 | 92 | 1027.9 |
| 20260506091008 | 66 | 30 | 0.0 | 2.0 | 0.00 | 0.23 | 0.00 | 92 | 1027.9 |
| 20260506090508 | 66 | 32 | 0.0 | 2.0 | 0.00 | 0.23 | 0.00 | 92 | 1028.0 |
| 20260506090006 | 66 | 18 | 0.0 | 2.0 | 0.00 | 0.23 | 0.00 | 92 | 1028.0 |
| 20260506085505 | 66 | 18 | 0.0 | 2.0 | 0.00 | 0.24 | 0.00 | 92 | 1028.2 |
| 20260506085007 | 66 | 18 | 0.0 | 2.0 | 0.00 | 0.24 | 0.00 | 92 | 1028.2 |
| 20260506084505 | 66 | 20 | 1.0 | 3.0 | 0.00 | 0.24 | 0.00 | 92 | 1028.3 |
| 20260506084007 | 66 | 9 | 1.0 | 3.0 | 0.00 | 0.24 | 0.00 | 92 | 1028.4 |
| 20260506083503 | 66 | 5 | 0.0 | 2.0 | 0.00 | 0.24 | 0.00 | 92 | 1028.5 |
| 20260506083002 | 67 | 2 | 1.0 | 2.0 | 0.00 | 0.24 | 0.00 | 92 | 1028.6 |
| 20260506082502 | 67 | 25 | 0.0 | 1.0 | 0.00 | 0.24 | 0.00 | 92 | 1028.7 |
| 20260506082003 | 67 | 32 | 0.0 | 1.0 | 0.00 | 0.24 | 0.00 | 92 | 1028.6 |
| 20260506081502 | 67 | 32 | 0.0 | 2.0 | 0.00 | 0.24 | 0.00 | 92 | 1028.5 |
| 20260506081002 | 67 | 18 | 0.0 | 2.0 | 0.00 | 0.24 | 0.00 | 92 | 1028.6 |
| 20260506080601 | 67 | 18 | 0.0 | 2.0 | 0.00 | 0.24 | 0.00 | 92 | 1028.8 |
| 20260506080108 | 67 | 18 | 0.0 | 1.0 | 0.00 | 0.24 | 0.00 | 92 | 1028.8 |
| 20260506073055 | 67 | 18 | 0.0 | 1.0 | 0.00 | 0.24 | 0.00 | 92 | 1029.3 |
| 20260506072553 | 67 | 18 | 0.0 | 1.0 | 0.00 | 0.24 | 0.00 | 92 | 1029.3 |
| 20260506072054 | 67 | 18 | 0.0 | 2.0 | 0.00 | 0.24 | 0.00 | 92 | 1029.3 |
| 20260506071602 | 67 | 18 | 0.0 | 2.0 | 0.00 | 0.24 | 0.00 | 92 | 1029.3 |
| 20260506071052 | 67 | 18 | 1.0 | 2.0 | 0.00 | 0.24 | 0.00 | 92 | 1029.3 |
| 20260506070552 | 67 | 18 | 1.0 | 2.0 | 0.00 | 0.24 | 0.00 | 92 | 1029.4 |
| 20260506062049 | 68 | 19 | 0.0 | 2.0 | 0.00 | 0.25 | 0.00 | 91 | 1029.4 |
| 20260506061548 | 68 | 13 | 0.0 | 0.0 | 0.00 | 0.25 | 0.00 | 91 | 1029.4 |
| 20260506061047 | 69 | 13 | 0.0 | 0.0 | 0.00 | 0.25 | 0.00 | 92 | 1029.5 |
| 20260506060546 | 69 | 13 | 0.0 | 0.0 | 0.00 | 0.25 | 0.00 | 92 | 1029.5 |
| 20260506051043 | 69 | 1 | 0.0 | 0.0 | 0.00 | 0.26 | 0.25 | 92 | 1030.1 |
| 20260506050643 | 70 | 1 | 0.0 | 0.0 | 0.00 | 0.26 | 0.25 | 92 | 1030.1 |
| 20260506045042 | 70 | 1 | 0.0 | 0.0 | 0.00 | 0.27 | 0.25 | 92 | 1030.1 |
| 20260506044542 | 70 | 1 | 0.0 | 0.0 | 0.00 | 0.27 | 0.25 | 92 | 1030.1 |
| 20260506044042 | 70 | 359 | 0.0 | 0.0 | 0.00 | 0.27 | 0.25 | 92 | 1030.2 |
| 20260506043541 | 70 | 1 | 0.0 | 0.0 | 0.00 | 0.27 | 0.25 | 92 | 1030.1 |
| 20260506043042 | 70 | 8 | 0.0 | 0.0 | 0.00 | 0.27 | 0.25 | 92 | 1030.1 |
| 20260506042541 | 70 | 1 | 0.0 | 0.0 | 0.00 | 0.27 | 0.25 | 92 | 1030.2 |
| 20260506042044 | 70 | 1 | 0.0 | 0.0 | 0.00 | 0.27 | 0.25 | 92 | 1030.1 |
| 20260506041542 | 70 | 1 | 0.0 | 0.0 | 0.00 | 0.27 | 0.25 | 92 | 1030.1 |
| 20260506041041 | 70 | 1 | 0.0 | 0.0 | 0.00 | 0.27 | 0.25 | 92 | 1030.1 |
| 20260506040541 | 70 | 1 | 0.0 | 0.0 | 0.00 | 0.27 | 0.25 | 92 | 1030.1 |
| 20260506040041 | 70 | 1 | 0.0 | 0.0 | 0.00 | 0.27 | 0.25 | 92 | 1030.0 |
| 20260506035541 | 70 | 1 | 0.0 | 0.0 | 0.00 | 0.27 | 0.25 | 92 | 1029.9 |
| 20260506035044 | 70 | 1 | 0.0 | 0.0 | 0.00 | 0.27 | 0.25 | 92 | 1029.9 |
| 20260506034557 | 70 | 359 | 0.0 | 0.0 | 0.00 | 0.27 | 0.25 | 92 | 1029.9 |
| 20260506034041 | 70 | 354 | 0.0 | 0.0 | 0.00 | 0.27 | 0.25 | 92 | 1029.9 |
| 20260506033539 | 70 | 6 | 0.0 | 0.0 | 0.00 | 0.27 | 0.25 | 92 | 1029.9 |
| 20260506033040 | 70 | 6 | 0.0 | 0.0 | 0.01 | 0.27 | 0.25 | 92 | 1029.8 |
| 20260506032544 | 70 | 6 | 0.0 | 0.0 | 0.01 | 0.27 | 0.25 | 92 | 1029.7 |
| 20260506032040 | 71 | 6 | 0.0 | 0.0 | 0.01 | 0.27 | 0.25 | 93 | 1029.6 |
| 20260506031542 | 70 | 6 | 0.0 | 0.0 | 0.01 | 0.27 | 0.25 | 93 | 1029.6 |
| 20260506031039 | 70 | 6 | 0.0 | 0.0 | 0.01 | 0.27 | 0.25 | 92 | 1029.5 |
| 20260506030538 | 70 | 6 | 0.0 | 0.0 | 0.01 | 0.27 | 0.25 | 92 | 1029.3 |
| 20260506030042 | 70 | 6 | 0.0 | 0.0 | 0.01 | 0.27 | 0.25 | 92 | 1029.2 |
| 20260506025539 | 71 | 6 | 0.0 | 0.0 | 0.01 | 0.28 | 0.25 | 92 | 1029.2 |